createdAt,value
2023-05-05T00:00:09.671Z,529.00
2023-05-05T00:01:09.622Z,528.00
2023-05-05T00:02:09.707Z,527.00
2023-05-05T00:03:09.809Z,527.00
2023-05-05T00:04:09.832Z,526.00
2023-05-05T00:05:09.830Z,526.00
2023-05-05T00:06:09.862Z,528.00
2023-05-05T00:07:09.917Z,528.00
2023-05-05T00:08:09.937Z,529.00
2023-05-05T00:09:10.011Z,527.00
2023-05-05T00:10:10.218Z,528.00
2023-05-05T00:11:10.108Z,524.00
2023-05-05T00:12:10.181Z,524.00
2023-05-05T00:13:10.419Z,525.00
2023-05-05T00:14:10.262Z,527.00
2023-05-05T00:15:10.319Z,530.00
2023-05-05T00:16:10.350Z,527.00
2023-05-05T00:17:10.673Z,530.00
2023-05-05T00:18:10.444Z,531.00
2023-05-05T00:19:10.552Z,534.00
2023-05-05T00:20:10.626Z,534.00
2023-05-05T00:21:10.621Z,533.00
2023-05-05T00:22:10.654Z,534.00
2023-05-05T00:23:10.713Z,534.00
2023-05-05T00:24:10.718Z,535.00
2023-05-05T00:25:10.768Z,535.00
2023-05-05T00:26:10.873Z,535.00
2023-05-05T00:27:10.847Z,536.00
2023-05-05T00:28:10.886Z,536.00
2023-05-05T00:29:10.943Z,536.00
2023-05-05T00:30:11.015Z,533.00
2023-05-05T00:31:11.078Z,535.00
2023-05-05T00:32:11.100Z,537.00
2023-05-05T00:33:11.150Z,536.00
2023-05-05T00:34:11.191Z,536.00
2023-05-05T00:35:11.203Z,535.00
2023-05-05T00:36:11.230Z,536.00
2023-05-05T00:37:11.304Z,538.00
2023-05-05T00:38:11.372Z,539.00
2023-05-05T00:39:11.380Z,539.00
2023-05-05T00:40:11.413Z,537.00
2023-05-05T00:41:11.488Z,539.00
2023-05-05T00:42:11.547Z,539.00
2023-05-05T00:43:11.621Z,536.00
2023-05-05T00:44:11.702Z,534.00
2023-05-05T00:45:11.715Z,534.00
2023-05-05T00:46:11.820Z,534.00
2023-05-05T00:47:11.803Z,532.00
2023-05-05T00:48:11.830Z,532.00
2023-05-05T00:49:11.884Z,533.00
2023-05-05T00:50:11.930Z,535.00
2023-05-05T00:51:11.915Z,535.00
2023-05-05T00:52:11.964Z,534.00
2023-05-05T00:53:12.007Z,535.00
2023-05-05T00:54:12.029Z,532.00
2023-05-05T00:55:12.137Z,532.00
2023-05-05T00:56:12.154Z,532.00
2023-05-05T00:57:12.228Z,530.00
2023-05-05T00:58:12.253Z,530.00
2023-05-05T00:59:12.282Z,532.00
2023-05-05T01:00:12.320Z,532.00
2023-05-05T01:01:12.389Z,531.00
2023-05-05T01:02:12.412Z,533.00
2023-05-05T01:03:12.491Z,533.00
2023-05-05T01:04:12.466Z,536.00
2023-05-05T01:05:12.534Z,534.00
2023-05-05T01:06:12.593Z,537.00
2023-05-05T01:07:12.678Z,538.00
2023-05-05T01:08:12.745Z,537.00
2023-05-05T01:09:12.823Z,535.00
2023-05-05T01:10:20.227Z,539.00
2023-05-05T01:11:13.929Z,539.00
2023-05-05T01:12:12.864Z,539.00
2023-05-05T01:13:13.008Z,538.00
2023-05-05T01:14:12.900Z,538.00
2023-05-05T01:15:12.869Z,540.00
2023-05-05T01:16:12.918Z,540.00
2023-05-05T01:17:12.926Z,537.00
2023-05-05T01:18:12.864Z,538.00
2023-05-05T01:19:12.854Z,536.00
2023-05-05T01:20:12.820Z,537.00
2023-05-05T01:21:12.830Z,535.00
2023-05-05T01:22:12.912Z,533.00
2023-05-05T01:23:12.918Z,534.00
2023-05-05T01:24:12.937Z,535.00
2023-05-05T01:25:13.010Z,537.00
2023-05-05T01:26:13.083Z,534.00
2023-05-05T01:27:13.192Z,535.00
2023-05-05T01:28:13.222Z,538.00
2023-05-05T01:29:13.260Z,541.00
2023-05-05T01:30:13.357Z,544.00
2023-05-05T01:31:13.366Z,542.00
2023-05-05T01:32:13.415Z,544.00
2023-05-05T01:33:13.441Z,544.00
2023-05-05T01:34:13.478Z,545.00
2023-05-05T01:35:13.525Z,547.00
2023-05-05T01:36:13.552Z,549.00
2023-05-05T01:37:13.627Z,546.00
2023-05-05T01:38:13.626Z,545.00
2023-05-05T01:39:13.697Z,543.00
2023-05-05T01:40:13.785Z,541.00
2023-05-05T01:41:13.859Z,542.00
2023-05-05T01:42:13.934Z,542.00
2023-05-05T01:43:13.958Z,539.00
2023-05-05T01:44:13.975Z,540.00
2023-05-05T01:45:14.021Z,539.00
2023-05-05T01:46:14.106Z,534.00
2023-05-05T01:47:14.070Z,533.00
2023-05-05T01:48:14.102Z,533.00
2023-05-05T01:49:14.116Z,534.00
2023-05-05T01:50:14.134Z,536.00
2023-05-05T01:51:14.205Z,541.00
2023-05-05T01:52:14.282Z,541.00
2023-05-05T01:53:14.291Z,542.00
2023-05-05T01:54:14.335Z,545.00
2023-05-05T01:55:14.345Z,543.00
2023-05-05T01:56:14.328Z,545.00
2023-05-05T01:57:14.332Z,549.00
2023-05-05T01:58:14.352Z,553.00
2023-05-05T01:59:14.434Z,551.00
2023-05-05T02:00:14.425Z,549.00
2023-05-05T02:01:14.461Z,551.00
2023-05-05T02:02:14.460Z,550.00
2023-05-05T02:03:14.586Z,550.00
2023-05-05T02:04:14.466Z,552.00
2023-05-05T02:05:14.486Z,557.00
2023-05-05T02:06:14.554Z,557.00
2023-05-05T02:07:14.649Z,555.00
2023-05-05T02:08:14.779Z,554.00
2023-05-05T02:09:14.765Z,554.00
2023-05-05T02:10:14.754Z,552.00
2023-05-05T02:11:14.789Z,552.00
2023-05-05T02:12:14.785Z,552.00
2023-05-05T02:13:15.362Z,552.00
2023-05-05T02:14:14.790Z,550.00
2023-05-05T02:15:14.835Z,550.00
2023-05-05T02:16:14.917Z,549.00
2023-05-05T02:17:14.801Z,547.00
2023-05-05T02:18:14.883Z,547.00
2023-05-05T02:19:14.846Z,549.00
2023-05-05T02:20:14.954Z,548.00
2023-05-05T02:21:15.024Z,547.00
2023-05-05T02:22:15.151Z,548.00
2023-05-05T02:23:15.108Z,547.00
2023-05-05T02:24:15.152Z,550.00
2023-05-05T02:25:15.092Z,552.00
2023-05-05T02:26:15.132Z,549.00
2023-05-05T02:27:15.093Z,551.00
2023-05-05T02:28:15.161Z,551.00
2023-05-05T02:29:15.181Z,551.00
2023-05-05T02:30:15.152Z,550.00
2023-05-05T02:31:15.163Z,550.00
2023-05-05T02:32:15.134Z,550.00
2023-05-05T02:33:15.137Z,554.00
2023-05-05T02:34:15.180Z,553.00
2023-05-05T02:35:15.148Z,552.00
2023-05-05T02:36:15.152Z,551.00
2023-05-05T02:37:15.199Z,549.00
2023-05-05T02:38:15.160Z,548.00
2023-05-05T02:39:15.212Z,548.00
2023-05-05T02:40:15.209Z,548.00
2023-05-05T02:41:15.219Z,549.00
2023-05-05T02:42:15.220Z,552.00
2023-05-05T02:43:15.253Z,552.00
2023-05-05T02:44:15.326Z,553.00
2023-05-05T02:45:15.241Z,554.00
2023-05-05T02:46:15.809Z,555.00
2023-05-05T02:47:15.233Z,554.00
2023-05-05T02:48:15.231Z,551.00
2023-05-05T02:49:15.212Z,551.00
2023-05-05T02:50:15.224Z,553.00
2023-05-05T02:51:15.238Z,551.00
2023-05-05T02:52:15.310Z,550.00
2023-05-05T02:53:15.688Z,547.00
2023-05-05T02:54:15.433Z,547.00
2023-05-05T02:55:15.493Z,550.00
2023-05-05T02:56:15.548Z,552.00
2023-05-05T02:57:15.629Z,551.00
2023-05-05T02:58:15.660Z,553.00
2023-05-05T02:59:16.416Z,552.00
2023-05-05T03:00:15.717Z,552.00
2023-05-05T03:01:15.718Z,554.00
2023-05-05T03:02:15.704Z,555.00
2023-05-05T03:03:15.775Z,555.00
2023-05-05T03:04:15.815Z,555.00
2023-05-05T03:05:15.767Z,556.00
2023-05-05T03:06:15.845Z,557.00
2023-05-05T03:07:15.959Z,555.00
2023-05-05T03:08:16.021Z,556.00
2023-05-05T03:09:16.117Z,559.00
2023-05-05T03:10:16.207Z,558.00
2023-05-05T03:11:16.277Z,558.00
2023-05-05T03:12:16.354Z,556.00
2023-05-05T03:13:16.372Z,556.00
2023-05-05T03:14:16.396Z,558.00
2023-05-05T03:15:16.355Z,558.00
2023-05-05T03:16:16.374Z,558.00
2023-05-05T03:17:16.385Z,557.00
2023-05-05T03:18:16.441Z,557.00
2023-05-05T03:19:16.544Z,555.00
2023-05-05T03:20:16.651Z,551.00
2023-05-05T03:21:16.673Z,551.00
2023-05-05T03:22:16.754Z,553.00
2023-05-05T03:23:16.747Z,556.00
2023-05-05T03:24:16.758Z,555.00
2023-05-05T03:25:16.747Z,558.00
2023-05-05T03:26:16.762Z,559.00
2023-05-05T03:27:16.793Z,557.00
2023-05-05T03:28:16.789Z,558.00
2023-05-05T03:29:16.903Z,559.00
2023-05-05T03:30:16.895Z,559.00
2023-05-05T03:31:17.258Z,558.00
2023-05-05T03:32:16.963Z,560.00
2023-05-05T03:33:16.950Z,559.00
2023-05-05T03:34:16.963Z,560.00
2023-05-05T03:35:16.982Z,560.00
2023-05-05T03:36:17.005Z,561.00
2023-05-05T03:37:16.976Z,560.00
2023-05-05T03:38:16.984Z,558.00
2023-05-05T03:39:17.077Z,558.00
2023-05-05T03:40:17.193Z,556.00
2023-05-05T03:41:17.272Z,553.00
2023-05-05T03:42:17.315Z,553.00
2023-05-05T03:43:17.303Z,556.00
2023-05-05T03:44:17.277Z,559.00
2023-05-05T03:45:17.320Z,559.00
2023-05-05T03:46:17.468Z,559.00
2023-05-05T03:47:17.415Z,560.00
2023-05-05T03:48:17.482Z,560.00
2023-05-05T03:49:17.461Z,561.00
2023-05-05T03:50:17.492Z,559.00
2023-05-05T03:51:17.469Z,556.00
2023-05-05T03:52:17.455Z,556.00
2023-05-05T03:53:17.497Z,555.00
2023-05-05T03:54:17.509Z,559.00
2023-05-05T03:55:17.513Z,558.00
2023-05-05T03:56:17.490Z,559.00
2023-05-05T03:57:17.499Z,561.00
2023-05-05T03:58:17.477Z,563.00
2023-05-05T03:59:17.498Z,561.00
2023-05-05T04:00:17.611Z,559.00
2023-05-05T04:01:17.752Z,561.00
2023-05-05T04:02:18.847Z,562.00
2023-05-05T04:03:17.968Z,562.00
2023-05-05T04:04:17.947Z,560.00
2023-05-05T04:05:17.802Z,559.00
2023-05-05T04:06:17.869Z,560.00
2023-05-05T04:07:17.827Z,560.00
2023-05-05T04:08:17.857Z,560.00
2023-05-05T04:09:17.785Z,561.00
2023-05-05T04:10:17.944Z,559.00
2023-05-05T04:11:17.898Z,559.00
2023-05-05T04:12:17.897Z,561.00
2023-05-05T04:13:17.904Z,559.00
2023-05-05T04:14:17.869Z,557.00
2023-05-05T04:15:17.911Z,557.00
2023-05-05T04:16:18.043Z,557.00
2023-05-05T04:17:18.042Z,555.00
2023-05-05T04:18:18.287Z,554.00
2023-05-05T04:19:18.218Z,552.00
2023-05-05T04:20:18.250Z,552.00
2023-05-05T04:21:18.226Z,552.00
2023-05-05T04:22:18.202Z,552.00
2023-05-05T04:23:18.205Z,553.00
2023-05-05T04:24:18.227Z,555.00
2023-05-05T04:25:18.294Z,556.00
2023-05-05T04:26:18.377Z,556.00
2023-05-05T04:27:18.484Z,555.00
2023-05-05T04:28:21.024Z,557.00
2023-05-05T04:29:18.574Z,558.00
2023-05-05T04:30:18.566Z,556.00
2023-05-05T04:31:18.592Z,558.00
2023-05-05T04:32:18.536Z,557.00
2023-05-05T04:33:18.530Z,560.00
2023-05-05T04:34:18.522Z,560.00
2023-05-05T04:35:18.542Z,561.00
2023-05-05T04:36:18.496Z,562.00
2023-05-05T04:37:18.495Z,560.00
2023-05-05T04:38:18.553Z,559.00
2023-05-05T04:39:18.550Z,557.00
2023-05-05T04:40:18.525Z,555.00
2023-05-05T04:41:18.483Z,555.00
2023-05-05T04:42:18.501Z,554.00
2023-05-05T04:43:18.468Z,554.00
2023-05-05T04:44:18.460Z,554.00
2023-05-05T04:45:18.460Z,553.00
2023-05-05T04:46:18.455Z,554.00
2023-05-05T04:47:18.442Z,554.00
2023-05-05T04:48:18.403Z,555.00
2023-05-05T04:49:18.440Z,555.00
2023-05-05T04:50:18.412Z,556.00
2023-05-05T04:51:18.429Z,558.00
2023-05-05T04:52:18.379Z,561.00
2023-05-05T04:53:18.394Z,564.00
2023-05-05T04:54:18.419Z,564.00
2023-05-05T04:55:18.390Z,563.00
2023-05-05T04:56:18.469Z,565.00
2023-05-05T04:57:18.329Z,566.00
2023-05-05T04:58:18.354Z,567.00
2023-05-05T04:59:18.365Z,568.00
2023-05-05T05:00:18.347Z,563.00
2023-05-05T05:01:18.339Z,561.00
2023-05-05T05:02:18.348Z,557.00
2023-05-05T05:03:18.406Z,559.00
2023-05-05T05:04:18.315Z,559.00
2023-05-05T05:05:18.357Z,558.00
2023-05-05T05:06:18.303Z,561.00
2023-05-05T05:07:19.250Z,560.00
2023-05-05T05:08:18.323Z,560.00
2023-05-05T05:09:18.278Z,562.00
2023-05-05T05:10:18.313Z,563.00
2023-05-05T05:11:18.279Z,565.00
2023-05-05T05:12:18.265Z,564.00
2023-05-05T05:13:18.467Z,565.00
2023-05-05T05:14:18.227Z,564.00
2023-05-05T05:15:18.254Z,565.00
2023-05-05T05:16:18.430Z,565.00
2023-05-05T05:17:18.226Z,568.00
2023-05-05T05:18:18.256Z,568.00
2023-05-05T05:19:18.217Z,570.00
2023-05-05T05:20:18.240Z,568.00
2023-05-05T05:21:18.205Z,566.00
2023-05-05T05:22:18.308Z,564.00
2023-05-05T05:23:18.192Z,564.00
2023-05-05T05:24:18.200Z,564.00
2023-05-05T05:25:18.233Z,563.00
2023-05-05T05:26:18.187Z,563.00
2023-05-05T05:27:18.239Z,564.00
2023-05-05T05:28:18.204Z,562.00
2023-05-05T05:29:18.162Z,563.00
2023-05-05T05:30:18.122Z,561.00
2023-05-05T05:31:18.144Z,565.00
2023-05-05T05:32:18.210Z,561.00
2023-05-05T05:33:18.118Z,562.00
2023-05-05T05:34:18.118Z,567.00
2023-05-05T05:35:18.230Z,570.00
2023-05-05T05:36:18.120Z,578.00
2023-05-05T05:37:18.185Z,669.00
2023-05-05T05:38:18.081Z,725.00
2023-05-05T05:39:18.120Z,764.00
2023-05-05T05:40:18.070Z,814.00
2023-05-05T05:41:18.072Z,864.00
2023-05-05T05:42:18.063Z,899.00
2023-05-05T05:43:18.759Z,944.00
2023-05-05T05:44:18.122Z,996.00
2023-05-05T05:45:18.046Z,1033.00
2023-05-05T05:46:18.099Z,1079.00
2023-05-05T05:47:18.029Z,1109.00
2023-05-05T05:48:18.039Z,1121.00
2023-05-05T05:49:18.015Z,1140.00
2023-05-05T05:50:18.095Z,1158.00
2023-05-05T05:51:18.126Z,1145.00
2023-05-05T05:52:18.179Z,1129.00
2023-05-05T05:53:18.200Z,1125.00
2023-05-05T05:54:18.256Z,1121.00
2023-05-05T05:55:18.324Z,1116.00
2023-05-05T05:56:18.365Z,1113.00
2023-05-05T05:57:18.385Z,1113.00
2023-05-05T05:58:18.570Z,1110.00
2023-05-05T05:59:18.452Z,1113.00
2023-05-05T06:00:18.504Z,1116.00
2023-05-05T06:01:18.557Z,1122.00
2023-05-05T06:02:18.662Z,1122.00
2023-05-05T06:03:18.946Z,1120.00
2023-05-05T06:04:18.772Z,1120.00
2023-05-05T06:05:18.833Z,1120.00
2023-05-05T06:06:19.291Z,1120.00
2023-05-05T06:07:18.892Z,1119.00
2023-05-05T06:08:19.355Z,1117.00
2023-05-05T06:09:18.950Z,1115.00
2023-05-05T06:10:27.907Z,1115.00
2023-05-05T06:11:20.006Z,1114.00
2023-05-05T06:12:19.001Z,1112.00
2023-05-05T06:13:19.020Z,1114.00
2023-05-05T06:14:20.116Z,1112.00
2023-05-05T06:15:18.990Z,1116.00
2023-05-05T06:16:18.990Z,1116.00
2023-05-05T06:17:18.988Z,1115.00
2023-05-05T06:18:19.256Z,1116.00
2023-05-05T06:19:18.966Z,1117.00
2023-05-05T06:20:19.115Z,1115.00
2023-05-05T06:21:19.093Z,1118.00
2023-05-05T06:22:19.136Z,1116.00
2023-05-05T06:23:19.208Z,1114.00
2023-05-05T06:24:19.234Z,1115.00
2023-05-05T06:25:19.348Z,1115.00
2023-05-05T06:26:19.364Z,1115.00
2023-05-05T06:27:19.384Z,1112.00
2023-05-05T06:28:19.787Z,1112.00
2023-05-05T06:29:19.564Z,1107.00
2023-05-05T06:30:19.567Z,1107.00
2023-05-05T06:31:19.604Z,1108.00
2023-05-05T06:32:19.659Z,1104.00
2023-05-05T06:33:19.768Z,1104.00
2023-05-05T06:34:19.736Z,1101.00
2023-05-05T06:35:19.798Z,1099.00
2023-05-05T06:36:19.872Z,1100.00
2023-05-05T06:37:19.914Z,1098.00
2023-05-05T06:38:20.318Z,1097.00
2023-05-05T06:39:20.011Z,1098.00
2023-05-05T06:40:20.040Z,1098.00
2023-05-05T06:41:20.104Z,1095.00
2023-05-05T06:42:20.128Z,1095.00
2023-05-05T06:43:20.202Z,1094.00
2023-05-05T06:44:20.270Z,1094.00
2023-05-05T06:45:20.294Z,1091.00
2023-05-05T06:46:20.370Z,1089.00
2023-05-05T06:47:20.786Z,1090.00
2023-05-05T06:48:20.448Z,1090.00
2023-05-05T06:49:20.542Z,1089.00
2023-05-05T06:50:20.642Z,1089.00
2023-05-05T06:51:20.625Z,1089.00
2023-05-05T06:52:20.758Z,1087.00
2023-05-05T06:53:20.750Z,1086.00
2023-05-05T06:54:20.809Z,1085.00
2023-05-05T06:55:20.923Z,1085.00
2023-05-05T06:56:20.922Z,1087.00
2023-05-05T06:57:21.027Z,1086.00
2023-05-05T06:58:21.081Z,1084.00
2023-05-05T06:59:21.124Z,1082.00
2023-05-05T07:00:21.134Z,1080.00
2023-05-05T07:01:21.286Z,1077.00
2023-05-05T07:02:21.276Z,1075.00
2023-05-05T07:03:21.452Z,1078.00
2023-05-05T07:04:21.391Z,1079.00
2023-05-05T07:05:21.435Z,1078.00
2023-05-05T07:06:21.541Z,1078.00
2023-05-05T07:07:21.534Z,1074.00
2023-05-05T07:08:21.647Z,1073.00
2023-05-05T07:09:21.669Z,1072.00
2023-05-05T07:10:21.711Z,1072.00
2023-05-05T07:11:21.767Z,1072.00
2023-05-05T07:12:21.849Z,1074.00
2023-05-05T07:13:21.895Z,1075.00
2023-05-05T07:14:24.234Z,1071.00
2023-05-05T07:15:28.861Z,1071.00
2023-05-05T07:16:23.216Z,1072.00
2023-05-05T07:17:22.199Z,1070.00
2023-05-05T07:18:22.141Z,1068.00
2023-05-05T07:19:22.181Z,1069.00
2023-05-05T07:20:22.134Z,1066.00
2023-05-05T07:21:22.105Z,1065.00
2023-05-05T07:22:22.173Z,1064.00
2023-05-05T07:23:22.126Z,1066.00
2023-05-05T07:24:22.150Z,1063.00
2023-05-05T07:25:22.165Z,1064.00
2023-05-05T07:26:22.225Z,1064.00
2023-05-05T07:27:22.329Z,1067.00
2023-05-05T07:28:22.387Z,1064.00
2023-05-05T07:29:22.911Z,1063.00
2023-05-05T07:30:22.926Z,1064.00
2023-05-05T07:31:22.638Z,1064.00
2023-05-05T07:32:22.737Z,1122.00
2023-05-05T07:33:22.617Z,1213.00
2023-05-05T07:34:22.813Z,1230.00
2023-05-05T07:35:22.739Z,1254.00
2023-05-05T07:36:22.749Z,1288.00
2023-05-05T07:37:22.813Z,1316.00
2023-05-05T07:38:22.872Z,1358.00
2023-05-05T07:39:22.873Z,1439.00
2023-05-05T07:40:22.990Z,1454.00
2023-05-05T07:41:22.933Z,1488.00
2023-05-05T07:42:23.184Z,1520.00
2023-05-05T07:43:23.025Z,1544.00
2023-05-05T07:44:23.193Z,1582.00
2023-05-05T07:45:23.050Z,1630.00
2023-05-05T07:46:23.223Z,1675.00
2023-05-05T07:47:23.107Z,1751.00
2023-05-05T07:48:23.114Z,1772.00
2023-05-05T07:49:23.188Z,1797.00
2023-05-05T07:50:23.425Z,1830.00
2023-05-05T07:51:23.176Z,1865.00
2023-05-05T07:52:33.542Z,1956.00
2023-05-05T07:53:24.133Z,1973.00
2023-05-05T07:54:23.460Z,1987.00
2023-05-05T07:55:23.152Z,2001.00
2023-05-05T07:56:23.113Z,2035.00
2023-05-05T07:57:23.177Z,2061.00
2023-05-05T07:58:23.148Z,2085.00
2023-05-05T07:59:23.105Z,2113.00
2023-05-05T08:00:23.077Z,2212.00
2023-05-05T08:01:23.100Z,2239.00
2023-05-05T08:02:23.254Z,2264.00
2023-05-05T08:03:23.254Z,2290.00
2023-05-05T08:04:23.146Z,2325.00
2023-05-05T08:05:23.084Z,2344.00
2023-05-05T08:06:23.094Z,2359.00
2023-05-05T08:07:23.126Z,2385.00
2023-05-05T08:08:23.023Z,2482.00
2023-05-05T08:09:23.073Z,2502.00
2023-05-05T08:10:23.102Z,2524.00
2023-05-05T08:11:23.114Z,2560.00
2023-05-05T08:12:23.036Z,2593.00
2023-05-05T08:13:23.106Z,2648.00
2023-05-05T08:14:23.141Z,2691.00
2023-05-05T08:15:23.265Z,2696.00
2023-05-05T08:16:23.298Z,2706.00
2023-05-05T08:17:23.382Z,2726.00
2023-05-05T08:18:23.378Z,2789.00
2023-05-05T08:19:29.208Z,2829.00
2023-05-05T08:20:24.396Z,2860.00
2023-05-05T08:21:23.474Z,2927.00
2023-05-05T08:22:23.346Z,2997.00
2023-05-05T08:23:23.330Z,3000.00
2023-05-05T08:24:23.339Z,3011.00
2023-05-05T08:25:23.387Z,3033.00
2023-05-05T08:26:23.469Z,3060.00
2023-05-05T08:27:23.349Z,3045.00
2023-05-05T08:28:23.361Z,2949.00
2023-05-05T08:29:23.844Z,2922.00
2023-05-05T08:30:23.521Z,2876.00
2023-05-05T08:31:23.483Z,2860.00
2023-05-05T08:32:23.610Z,2868.00
2023-05-05T08:33:23.508Z,2863.00
2023-05-05T08:34:23.530Z,2862.00
2023-05-05T08:35:23.757Z,2865.00
2023-05-05T08:36:23.588Z,2872.00
2023-05-05T08:37:23.593Z,2870.00
2023-05-05T08:38:23.550Z,2875.00
2023-05-05T08:39:23.581Z,2878.00
2023-05-05T08:40:23.734Z,2356.00
2023-05-05T08:41:23.598Z,1993.00
2023-05-05T08:42:36.409Z,1966.00
2023-05-05T08:43:24.815Z,1864.00
2023-05-05T08:44:23.899Z,1872.00
2023-05-05T08:45:23.639Z,1882.00
2023-05-05T08:46:23.633Z,1865.00
2023-05-05T08:47:23.893Z,1821.00
2023-05-05T08:48:23.588Z,1812.00
2023-05-05T08:49:23.659Z,1811.00
2023-05-05T08:50:23.594Z,1826.00
2023-05-05T08:51:23.546Z,1863.00
2023-05-05T08:52:23.646Z,1893.00
2023-05-05T08:53:23.570Z,1908.00
2023-05-05T08:54:23.866Z,1922.00
2023-05-05T08:55:23.541Z,1933.00
2023-05-05T08:56:23.509Z,1943.00
2023-05-05T08:57:23.520Z,1992.00
2023-05-05T08:58:23.687Z,2015.00
2023-05-05T08:59:23.522Z,2029.00
2023-05-05T09:00:23.706Z,2035.00
2023-05-05T09:01:23.701Z,2060.00
2023-05-05T09:02:23.779Z,2082.00
2023-05-05T09:03:23.780Z,2105.00
2023-05-05T09:04:23.821Z,2141.00
2023-05-05T09:05:23.947Z,2164.00
2023-05-05T09:06:23.919Z,2188.00
2023-05-05T09:07:23.983Z,2194.00
2023-05-05T09:08:24.038Z,2154.00
2023-05-05T09:09:24.141Z,2103.00
2023-05-05T09:10:24.390Z,2109.00
2023-05-05T09:11:24.285Z,2124.00
2023-05-05T09:12:24.335Z,2132.00
2023-05-05T09:13:24.345Z,2144.00
2023-05-05T09:14:24.576Z,2171.00
2023-05-05T09:15:24.482Z,2183.00
2023-05-05T09:16:24.571Z,2213.00
2023-05-05T09:17:24.631Z,2245.00
2023-05-05T09:18:24.771Z,2261.00
2023-05-05T09:19:24.711Z,2269.00
2023-05-05T09:20:25.350Z,2265.00
2023-05-05T09:21:24.849Z,2265.00
2023-05-05T09:22:24.904Z,2279.00
2023-05-05T09:23:24.951Z,2301.00
2023-05-05T09:24:25.113Z,2341.00
2023-05-05T09:25:25.034Z,2361.00
2023-05-05T09:26:25.085Z,2380.00
2023-05-05T09:27:25.197Z,2410.00
2023-05-05T09:28:25.195Z,2426.00
2023-05-05T09:29:25.257Z,2460.00
2023-05-05T09:30:25.331Z,2483.00
2023-05-05T09:31:25.406Z,2506.00
2023-05-05T09:32:25.442Z,2529.00
2023-05-05T09:33:25.440Z,2575.00
2023-05-05T09:34:25.628Z,2572.00
2023-05-05T09:35:25.642Z,2529.00
2023-05-05T09:36:25.612Z,2664.00
2023-05-05T09:37:26.400Z,2522.00
2023-05-05T09:38:25.674Z,2446.00
2023-05-05T09:39:25.724Z,2410.00
2023-05-05T09:40:25.766Z,2411.00
2023-05-05T09:41:25.794Z,2435.00
2023-05-05T09:42:25.849Z,2485.00
2023-05-05T09:43:25.897Z,2508.00
2023-05-05T09:44:26.423Z,2527.00
2023-05-05T09:45:26.014Z,2553.00
2023-05-05T09:46:26.186Z,2589.00
2023-05-05T09:47:29.915Z,2604.00
2023-05-05T09:48:26.130Z,2636.00
2023-05-05T09:49:26.083Z,2659.00
2023-05-05T09:50:26.064Z,2685.00
2023-05-05T09:51:26.104Z,2734.00
2023-05-05T09:52:26.066Z,2767.00
2023-05-05T09:53:26.061Z,2792.00
2023-05-05T09:54:26.042Z,2801.00
2023-05-05T09:55:26.012Z,2796.00
2023-05-05T09:56:25.993Z,2708.00
2023-05-05T09:57:25.983Z,2605.00
2023-05-05T09:58:26.122Z,2608.00
2023-05-05T09:59:26.025Z,2606.00
2023-05-05T10:00:25.993Z,2593.00
2023-05-05T10:01:25.967Z,2579.00
2023-05-05T10:02:26.109Z,2572.00
2023-05-05T10:03:26.057Z,2478.00
2023-05-05T10:04:26.253Z,2469.00
2023-05-05T10:05:25.969Z,2460.00
2023-05-05T10:06:25.925Z,2446.00
2023-05-05T10:07:25.913Z,2377.00
2023-05-05T10:08:26.013Z,2357.00
2023-05-05T10:09:25.906Z,2348.00
2023-05-05T10:10:27.524Z,2338.00
2023-05-05T10:11:25.935Z,2317.00
2023-05-05T10:12:25.910Z,2282.00
2023-05-05T10:13:25.875Z,2260.00
2023-05-05T10:14:25.902Z,2255.00
2023-05-05T10:15:25.856Z,2254.00
2023-05-05T10:16:27.434Z,2271.00
2023-05-05T10:17:25.911Z,2292.00
2023-05-05T10:18:26.041Z,2313.00
2023-05-05T10:19:26.397Z,2350.00
2023-05-05T10:20:25.841Z,2384.00
2023-05-05T10:21:25.815Z,2402.00
2023-05-05T10:22:25.905Z,2423.00
2023-05-05T10:23:25.972Z,2479.00
2023-05-05T10:24:25.964Z,2499.00
2023-05-05T10:25:26.104Z,2518.00
2023-05-05T10:26:26.069Z,2554.00
2023-05-05T10:27:26.121Z,2589.00
2023-05-05T10:28:26.437Z,2582.00
2023-05-05T10:29:26.295Z,2551.00
2023-05-05T10:30:26.258Z,2490.00
2023-05-05T10:31:26.878Z,2487.00
2023-05-05T10:32:51.218Z,2478.00
2023-05-05T10:33:32.050Z,2474.00
2023-05-05T10:34:26.577Z,2468.00
2023-05-05T10:35:26.343Z,2422.00
2023-05-05T10:36:26.308Z,2383.00
2023-05-05T10:37:26.347Z,2374.00
2023-05-05T10:38:26.926Z,2364.00
2023-05-05T10:39:26.305Z,2357.00
2023-05-05T10:40:26.276Z,2357.00
2023-05-05T10:41:26.297Z,2348.00
2023-05-05T10:42:26.258Z,2344.00
2023-05-05T10:43:26.412Z,2341.00
2023-05-05T10:44:26.398Z,2334.00
2023-05-05T10:45:26.327Z,2333.00
2023-05-05T10:46:26.290Z,2333.00
2023-05-05T10:47:26.285Z,2329.00
2023-05-05T10:48:26.349Z,2328.00
2023-05-05T10:49:26.439Z,2327.00
2023-05-05T10:50:26.946Z,2329.00
2023-05-05T10:51:38.788Z,2322.00
2023-05-05T10:52:27.214Z,2316.00
2023-05-05T10:53:26.198Z,2318.00
2023-05-05T10:54:26.496Z,2318.00
2023-05-05T10:55:26.239Z,2316.00
2023-05-05T10:56:26.189Z,2317.00
2023-05-05T10:57:26.229Z,2316.00
2023-05-05T10:58:26.177Z,2317.00
2023-05-05T10:59:26.275Z,2313.00
2023-05-05T11:00:26.223Z,2313.00
2023-05-05T11:01:26.261Z,2308.00
2023-05-05T11:02:26.322Z,2304.00
2023-05-05T11:03:26.510Z,2300.00
2023-05-05T11:04:26.921Z,2300.00
2023-05-05T11:05:26.465Z,2296.00
2023-05-05T11:06:26.615Z,2291.00
2023-05-05T11:07:26.656Z,2290.00
2023-05-05T11:08:26.641Z,2287.00
2023-05-05T11:09:26.683Z,2290.00
2023-05-05T11:10:26.843Z,2292.00
2023-05-05T11:11:26.798Z,2291.00
2023-05-05T11:12:26.899Z,2288.00
2023-05-05T11:13:27.040Z,2289.00
2023-05-05T11:14:27.001Z,2288.00
2023-05-05T11:15:27.590Z,2287.00
2023-05-05T11:16:27.173Z,2284.00
2023-05-05T11:17:27.231Z,2281.00
2023-05-05T11:18:27.289Z,2280.00
2023-05-05T11:19:27.297Z,2280.00
2023-05-05T11:20:27.481Z,2279.00
2023-05-05T11:21:27.409Z,2283.00
2023-05-05T11:22:27.480Z,2284.00
2023-05-05T11:23:27.936Z,2284.00
2023-05-05T11:24:27.605Z,2283.00
2023-05-05T11:25:27.662Z,2282.00
2023-05-05T11:26:27.732Z,2281.00
2023-05-05T11:27:27.792Z,2282.00
2023-05-05T11:28:27.860Z,2278.00
2023-05-05T11:29:27.925Z,2274.00
2023-05-05T11:30:28.024Z,2277.00
2023-05-05T11:31:28.084Z,2278.00
2023-05-05T11:32:29.029Z,2277.00
2023-05-05T11:33:28.294Z,2277.00
2023-05-05T11:34:28.261Z,2273.00
2023-05-05T11:35:28.452Z,2272.00
2023-05-05T11:36:28.375Z,2270.00
2023-05-05T11:37:28.467Z,2271.00
2023-05-05T11:38:28.482Z,2270.00
2023-05-05T11:39:28.523Z,2272.00
2023-05-05T11:40:28.555Z,2273.00
2023-05-05T11:41:28.613Z,2273.00
2023-05-05T11:42:28.663Z,2266.00
2023-05-05T11:43:28.763Z,2268.00
2023-05-05T11:44:28.779Z,2267.00
2023-05-05T11:45:28.857Z,2265.00
2023-05-05T11:46:28.968Z,2260.00
2023-05-05T11:47:28.964Z,2258.00
2023-05-05T11:48:29.044Z,2261.00
2023-05-05T11:49:29.054Z,2260.00
2023-05-05T11:50:29.087Z,2254.00
2023-05-05T11:51:29.112Z,2249.00
2023-05-05T11:52:29.219Z,2251.00
2023-05-05T11:53:29.276Z,2246.00
2023-05-05T11:54:29.483Z,2247.00
2023-05-05T11:55:29.395Z,2244.00
2023-05-05T11:56:29.434Z,2246.00
2023-05-05T11:57:29.480Z,2246.00
2023-05-05T11:58:29.595Z,2240.00
2023-05-05T11:59:29.569Z,2239.00
2023-05-05T12:00:29.601Z,2237.00
2023-05-05T12:01:29.683Z,2240.00
2023-05-05T12:02:29.823Z,2240.00
2023-05-05T12:03:29.916Z,2238.00
2023-05-05T12:04:29.836Z,2237.00
2023-05-05T12:05:29.841Z,2237.00
2023-05-05T12:06:30.003Z,2236.00
2023-05-05T12:07:30.006Z,2239.00
2023-05-05T12:08:29.993Z,2241.00
2023-05-05T12:09:30.022Z,2241.00
2023-05-05T12:10:30.126Z,2239.00
2023-05-05T12:11:30.102Z,2236.00
2023-05-05T12:12:30.195Z,2237.00
2023-05-05T12:13:30.213Z,2234.00
2023-05-05T12:14:30.233Z,2234.00
2023-05-05T12:15:30.294Z,2231.00
2023-05-05T12:16:30.340Z,2230.00